Time;durP1;ratioP1;P1;durP2;ratioP2;P2;SDS_P1;SDS_P2;PMS_P1;PMS_P2;Temp;Humidity;BMP_temperature;BMP_pressure;BME280_temperature;BME280_humidity;BME280_pressure;Samples;Min_cycle;Max_cycle;Signal;HPM_P1;HPM_P2
2022/11/28 00:00:25;;;;;;;;;;;4.60;99.90;;;;;;5072800;28;20028;-76
2022/11/28 00:02:50;;;;;;;17.83;8.25;;;4.60;99.90;;;;;;5071715;28;19965;-77
2022/11/28 00:05:16;;;;;;;;;;;4.60;99.90;;;;;;5070684;28;20028;-77
2022/11/28 00:07:41;;;;;;;17.90;9.25;;;4.60;99.90;;;;;;5071064;28;19947;-78
2022/11/28 00:10:07;;;;;;;;;;;4.50;99.90;;;;;;5070861;28;20527;-77
2022/11/28 00:12:34;;;;;;;18.25;10.15;;;4.60;99.90;;;;;;5071110;28;20365;-78
2022/11/28 00:14:59;;;;;;;;;;;4.60;99.90;;;;;;5070570;28;20412;-77
2022/11/28 00:17:25;;;;;;;23.17;10.10;;;4.60;99.90;;;;;;5070221;28;19915;-77
2022/11/28 00:19:50;;;;;;;;;;;4.70;99.90;;;;;;5070465;28;20031;-77
2022/11/28 00:22:16;;;;;;;28.88;12.02;;;4.70;99.90;;;;;;5072032;28;20369;-78
2022/11/28 00:24:41;;;;;;;;;;;4.60;99.90;;;;;;5070147;28;20063;-79
2022/11/28 00:27:07;;;;;;;;;;;4.60;99.90;;;;;;5071487;28;19912;-77
2022/11/28 00:29:32;;;;;;;;;;;4.60;99.90;;;;;;5071066;28;19904;-77
2022/11/28 00:31:58;;;;;;;;;;;4.60;99.90;;;;;;5070581;28;20288;-76
2022/11/28 00:34:23;;;;;;;;;;;4.70;99.90;;;;;;5071165;28;19908;-77
2022/11/28 00:36:49;;;;;;;;;;;4.60;99.90;;;;;;5070326;28;19962;-78
2022/11/28 00:39:15;;;;;;;;;;;4.70;99.90;;;;;;5071636;28;20456;-77
2022/11/28 00:41:41;;;;;;;;;;;4.70;99.90;;;;;;5071112;28;19916;-77
2022/11/28 00:44:06;;;;;;;;;;;4.70;99.90;;;;;;5070443;28;19931;-77
2022/11/28 00:46:32;;;;;;;;;;;4.70;99.90;;;;;;5071043;28;19913;-77
2022/11/28 00:48:57;;;;;;;;;;;4.70;99.90;;;;;;5070916;28;19915;-77
2022/11/28 00:51:24;;;;;;;;;;;4.60;99.90;;;;;;5072442;28;19908;-77
2022/11/28 00:53:51;;;;;;;;;;;4.60;99.90;;;;;;5072382;28;19944;-77
2022/11/28 00:56:18;;;;;;;;;;;4.70;99.90;;;;;;5072388;28;19930;-77
2022/11/28 00:58:44;;;;;;;;;;;4.70;99.90;;;;;;5073245;28;20011;-77
2022/11/28 01:01:35;;;;;;;;;;;4.70;99.90;;;;;;5071679;28;20456;-77
2022/11/28 01:04:03;;;;;;;;;;;4.70;99.90;;;;;;5074147;28;19909;-77
2022/11/28 01:06:30;;;;;;;;;;;4.70;99.90;;;;;;5070968;28;19919;-78
2022/11/28 01:09:02;;;;;;;;;;;4.80;99.90;;;;;;5068558;28;19912;-77
2022/11/28 01:11:28;;;;;;;;;;;4.60;99.90;;;;;;5069370;28;19912;-77
2022/11/28 01:13:54;;;;;;;;;;;4.60;99.90;;;;;;5067878;28;20014;-78
2022/11/28 01:16:20;;;;;;;;;;;4.60;99.90;;;;;;5069532;28;19908;-78
2022/11/28 01:18:45;;;;;;;;;;;4.50;99.90;;;;;;5068183;28;20002;-76
2022/11/28 01:21:11;;;;;;;;;;;4.50;99.90;;;;;;5067468;28;19908;-78
2022/11/28 01:23:36;;;;;;;;;;;4.60;99.90;;;;;;5067968;28;20292;-77
2022/11/28 01:26:03;;;;;;;;;;;4.50;99.90;;;;;;5068065;28;19924;-77
2022/11/28 01:28:28;;;;;;;;;;;4.40;99.90;;;;;;5069758;28;20387;-77
2022/11/28 01:30:54;;;;;;;;;;;4.40;99.90;;;;;;5067277;28;19912;-78
2022/11/28 01:33:19;;;;;;;;;;;4.40;99.90;;;;;;5068873;28;20003;-77
2022/11/28 01:35:53;;;;;;;;;;;4.40;99.90;;;;;;5069311;28;20007;-77
2022/11/28 01:38:18;;;;;;;;;;;4.30;99.90;;;;;;5069067;28;19911;-77
2022/11/28 01:40:44;;;;;;;;;;;4.20;99.90;;;;;;5068315;28;19908;-77
2022/11/28 01:43:10;;;;;;;;;;;4.20;99.90;;;;;;5069433;28;20380;-77
2022/11/28 01:45:37;;;;;;;;;;;4.20;99.90;;;;;;5068781;28;19923;-78
2022/11/28 01:48:03;;;;;;;;;;;4.20;99.90;;;;;;5068446;28;19916;-78
2022/11/28 01:50:30;;;;;;;;;;;4.20;99.90;;;;;;5069397;28;19908;-78
2022/11/28 01:52:58;;;;;;;;;;;4.20;99.90;;;;;;5069773;28;19904;-77
2022/11/28 01:55:26;;;;;;;;;;;4.30;99.90;;;;;;5069746;28;19962;-77
2022/11/28 01:57:52;;;;;;;;;;;4.30;99.90;;;;;;5068551;28;19911;-77
2022/11/28 02:00:19;;;;;;;;;;;4.30;99.90;;;;;;5067591;28;19914;-77
2022/11/28 02:02:46;;;;;;;;;;;4.30;99.90;;;;;;5068345;28;19904;-77
2022/11/28 02:05:12;;;;;;;;;;;4.40;99.90;;;;;;5067814;28;19977;-77
2022/11/28 02:07:37;;;;;;;;;;;4.40;99.90;;;;;;5068637;28;20466;-77
2022/11/28 02:10:05;;;;;;;;;;;4.30;99.90;;;;;;5068425;28;19908;-77
2022/11/28 02:12:30;;;;;;;;;;;4.50;99.90;;;;;;5068670;28;19916;-77
2022/11/28 02:15:11;;;;;;;;;;;4.60;99.90;;;;;;5069618;28;19960;-78
2022/11/28 02:17:43;;;;;;;;;;;4.50;99.90;;;;;;5068331;28;19908;-77
2022/11/28 02:20:21;;;;;;;;;;;4.40;99.90;;;;;;5068360;28;19955;-78
2022/11/28 02:22:52;;;;;;;;;;;4.40;99.90;;;;;;5068207;28;20468;-78
2022/11/28 02:25:32;;;;;;;;;;;4.40;99.90;;;;;;5069361;28;20368;-78
2022/11/28 02:28:10;;;;;;;;;;;4.40;99.90;;;;;;5068943;28;20696;-77
2022/11/28 02:30:39;;;;;;;;;;;4.40;99.90;;;;;;5068820;28;19977;-77
2022/11/28 02:33:04;;;;;;;;;;;4.40;99.90;;;;;;5070113;28;20395;-78
2022/11/28 02:35:30;;;;;;;;;;;4.40;99.90;;;;;;5069002;28;19908;-77
2022/11/28 02:38:01;;;;;;;;;;;4.30;99.90;;;;;;5070084;28;19905;-76
2022/11/28 02:40:32;;;;;;;;;;;4.20;99.90;;;;;;5070358;28;20007;-77
2022/11/28 02:43:08;;;;;;;;;;;4.20;99.90;;;;;;5065826;28;19920;-77
2022/11/28 02:45:40;;;;;;;;;;;4.20;99.90;;;;;;5069104;28;20396;-77
2022/11/28 02:48:09;;;;;;;;;;;4.20;99.90;;;;;;5070109;28;19919;-77
2022/11/28 02:50:38;;;;;;;;;;;4.30;99.90;;;;;;5070432;28;20291;-77
2022/11/28 02:53:12;;;;;;;;;;;4.20;99.90;;;;;;5070015;28;19908;-78
2022/11/28 02:55:39;;;;;;;;;;;4.20;99.90;;;;;;5069163;28;20379;-78
2022/11/28 02:58:04;;;;;;;;;;;4.20;99.90;;;;;;5069900;28;20491;-77
2022/11/28 03:00:30;;;;;;;;;;;4.20;99.90;;;;;;5070131;28;19937;-77
2022/11/28 03:03:16;;;;;;;;;;;4.20;99.90;;;;;;5068718;28;19904;-77
2022/11/28 03:06:00;;;;;;;;;;;4.20;99.90;;;;;;5065919;28;19999;-78
2022/11/28 03:08:28;;;;;;;;;;;4.20;99.90;;;;;;5069578;28;20554;-77
2022/11/28 03:10:54;;;;;;;;;;;4.20;99.90;;;;;;5070833;28;19912;-78
2022/11/28 03:13:22;;;;;;;;;;;4.20;99.90;;;;;;5074874;28;19931;-77
2022/11/28 03:15:50;;;;;;;;;;;4.20;99.90;;;;;;5075263;28;19930;-78
2022/11/28 03:18:23;;;;;;;;;;;4.20;99.90;;;;;;5074343;28;19908;-77
2022/11/28 03:21:12;;;;;;;;;;;4.20;99.90;;;;;;5074390;28;20042;-78
2022/11/28 03:24:10;;;;;;;;;;;4.20;99.90;;;;;;5070255;28;20208;-78
2022/11/28 03:26:39;;;;;;;;;;;4.20;99.90;;;;;;5062864;28;19912;-78
2022/11/28 03:29:13;;;;;;;;;;;4.30;99.90;;;;;;5075503;28;19908;-77
2022/11/28 03:31:41;;;;;;;;;;;4.30;99.90;;;;;;5071089;28;19904;-77
2022/11/28 03:34:09;;;;;;;;;;;4.30;99.90;;;;;;5071539;28;19911;-77
2022/11/28 03:36:38;;;;;;;;;;;4.30;99.90;;;;;;5069957;28;19962;-77
2022/11/28 03:39:07;;;;;;;;;;;4.30;99.90;;;;;;5069658;28;19960;-77
2022/11/28 03:42:05;;;;;;;;;;;4.20;99.90;;;;;;5071460;28;20411;-79
2022/11/28 03:44:34;;;;;;;;;;;4.20;99.90;;;;;;5069335;28;20028;-78
2022/11/28 03:47:00;;;;;;;;;;;4.20;99.90;;;;;;5069474;28;19912;-77
2022/11/28 03:49:30;;;;;;;;;;;4.30;99.90;;;;;;5069950;28;20002;-76
2022/11/28 03:52:03;;;;;;;;;;;4.20;99.90;;;;;;5071340;28;20007;-77
2022/11/28 03:54:29;;;;;;;;;;;4.20;99.90;;;;;;5071410;28;20002;-78
2022/11/28 03:57:07;;;;;;;;;;;4.20;99.90;;;;;;5069451;28;19999;-76
2022/11/28 03:59:40;;;;;;;;;;;4.20;99.90;;;;;;5070104;28;19947;-78
2022/11/28 04:02:12;;;;;;;;;;;4.20;99.90;;;;;;5071021;28;19976;-78
2022/11/28 04:04:47;;;;;;;;;;;4.30;99.90;;;;;;5069972;28;20386;-77
2022/11/28 04:07:33;;;;;;;;;;;4.20;99.90;;;;;;5069275;28;20011;-77
2022/11/28 04:10:17;;;;;;;;;;;4.20;99.90;;;;;;5059614;28;19914;-77
2022/11/28 04:12:52;;;;;;;;;;;4.10;99.90;;;;;;5070857;28;19910;-77
2022/11/28 04:15:35;;;;;;;;;;;4.10;99.90;;;;;;5069336;28;19912;-77
2022/11/28 04:18:20;;;;;;;;;;;4.20;99.90;;;;;;5070984;28;19905;-77
2022/11/28 04:20:48;;;;;;;;;;;4.20;99.90;;;;;;5070293;28;19908;-77
2022/11/28 04:23:15;;;;;;;;;;;4.20;99.90;;;;;;5069352;28;20650;-77
2022/11/28 04:25:43;;;;;;;;;;;4.20;99.90;;;;;;5071117;28;20019;-78
2022/11/28 04:28:15;;;;;;;;;;;4.20;99.90;;;;;;5070413;28;19944;-78
2022/11/28 04:30:42;;;;;;;;;;;4.20;99.90;;;;;;5070902;28;19943;-77
2022/11/28 04:33:08;;;;;;;;;;;4.20;99.90;;;;;;5069996;28;19962;-78
2022/11/28 04:35:40;;;;;;;;;;;4.20;99.90;;;;;;5070561;28;19945;-77
2022/11/28 04:38:06;;;;;;;;;;;4.20;99.90;;;;;;5070720;28;20604;-78
2022/11/28 04:40:36;;;;;;;;;;;4.10;99.90;;;;;;5070846;28;19904;-79
2022/11/28 04:43:03;;;;;;;;;;;4.10;99.90;;;;;;5070530;28;19932;-78
2022/11/28 04:45:31;;;;;;;;;;;4.20;99.90;;;;;;5071103;28;19912;-78
2022/11/28 04:47:57;;;;;;;;;;;4.30;99.90;;;;;;5070492;28;19912;-78
2022/11/28 04:50:24;;;;;;;;;;;4.20;99.90;;;;;;5070220;28;19968;-77
2022/11/28 04:52:49;;;;;;;;;;;4.30;99.90;;;;;;5071255;28;19904;-77
2022/11/28 04:55:33;;;;;;;;;;;4.30;99.90;;;;;;5071757;28;19918;-76
2022/11/28 04:58:04;;;;;;;;;;;4.30;99.90;;;;;;5069605;28;19950;-77
2022/11/28 05:00:32;;;;;;;;;;;4.30;99.90;;;;;;5070154;28;19909;-78
2022/11/28 05:02:57;;;;;;;;;;;4.30;99.90;;;;;;5070173;28;20007;-78
2022/11/28 05:05:24;;;;;;;;;;;4.20;99.90;;;;;;5069387;28;20011;-77
2022/11/28 05:07:50;;;;;;;;;;;4.20;99.90;;;;;;5070139;28;19943;-77
2022/11/28 05:10:16;;;;;;;;;;;4.20;99.90;;;;;;5071126;28;20438;-77
2022/11/28 05:12:42;;;;;;;;;;;4.30;99.90;;;;;;5071165;28;19917;-77
2022/11/28 05:15:08;;;;;;;;;;;4.30;99.90;;;;;;5070230;28;19904;-77
2022/11/28 05:17:34;;;;;;;;;;;4.20;99.90;;;;;;5071948;28;19962;-77
2022/11/28 05:19:59;;;;;;;;;;;4.20;99.90;;;;;;5072225;28;19908;-77
2022/11/28 05:22:25;;;;;;;;;;;4.20;99.90;;;;;;5070087;28;19908;-78
2022/11/28 05:24:51;;;;;;;;;;;4.20;99.90;;;;;;5072531;28;20416;-76
2022/11/28 05:27:17;;;;;;;;;;;4.20;99.90;;;;;;5071003;28;19920;-76
2022/11/28 05:29:43;;;;;;;;;;;4.20;99.90;;;;;;5071087;28;19913;-78
2022/11/28 05:32:12;;;;;;;;;;;4.20;99.90;;;;;;5071578;28;19915;-78
2022/11/28 05:34:37;;;;;;;;;;;4.30;99.90;;;;;;5069445;28;19915;-77
2022/11/28 05:37:04;;;;;;;;;;;4.30;99.90;;;;;;5072143;28;19905;-77
2022/11/28 05:39:29;;;;;;;;;;;4.30;99.90;;;;;;5069735;28;19909;-78
2022/11/28 05:41:55;;;;;;;;;;;4.20;99.90;;;;;;5070768;28;19908;-77
2022/11/28 05:44:20;;;;;;;;;;;4.30;99.90;;;;;;5069851;28;19921;-78
2022/11/28 05:46:46;;;;;;;;;;;4.30;99.90;;;;;;5071223;28;19962;-77
2022/11/28 05:49:11;;;;;;;;;;;4.20;99.90;;;;;;5070467;28;19955;-77
2022/11/28 05:51:37;;;;;;;;;;;4.20;99.90;;;;;;5072620;28;20372;-77
2022/11/28 05:54:02;;;;;;;;;;;4.30;99.90;;;;;;5073897;28;19967;-77
2022/11/28 05:56:28;;;;;;;;;;;4.20;99.90;;;;;;5072251;28;20285;-77
2022/11/28 05:58:53;;;;;;;;;;;4.20;99.90;;;;;;5069767;28;19909;-77
2022/11/28 06:01:24;;;;;;;;;;;4.10;99.90;;;;;;5066954;28;19908;-78
2022/11/28 06:03:51;;;;;;;;;;;4.10;99.90;;;;;;5068288;28;19909;-78
2022/11/28 06:06:18;;;;;;;;;;;4.10;99.90;;;;;;5069279;28;19923;-78
2022/11/28 06:08:44;;;;;;;;;;;4.10;99.90;;;;;;5068447;28;19909;-79
2022/11/28 06:11:10;;;;;;;;;;;4.10;99.90;;;;;;5069499;28;19912;-78
2022/11/28 06:13:36;;;;;;;;;;;4.10;99.90;;;;;;5067745;28;20004;-77
2022/11/28 06:16:01;;;;;;;;;;;4.10;99.90;;;;;;5068145;28;19985;-77
2022/11/28 06:18:27;;;;;;;;;;;4.10;99.90;;;;;;5069531;28;19908;-77
2022/11/28 06:20:53;;;;;;;;;;;4.10;99.90;;;;;;5067780;28;20007;-78
2022/11/28 06:23:18;;;;;;;;;;;4.10;99.90;;;;;;5068478;28;19905;-78
2022/11/28 06:25:44;;;;;;;;;;;4.10;99.90;;;;;;5068035;28;20482;-76
2022/11/28 06:28:09;;;;;;;;;;;4.10;99.90;;;;;;5069210;28;19926;-77
2022/11/28 06:30:35;;;;;;;;;;;4.10;99.90;;;;;;5067840;28;19913;-78
2022/11/28 06:33:00;;;;;;;;;;;4.10;99.90;;;;;;5067698;28;19912;-77
2022/11/28 06:35:26;;;;;;;;;;;4.10;99.90;;;;;;5068052;28;20324;-77
2022/11/28 06:37:51;;;;;;;;;;;4.10;99.90;;;;;;5067872;28;19908;-78
2022/11/28 06:40:17;;;;;;;;;;;4.20;99.90;;;;;;5067990;28;19966;-78
2022/11/28 06:42:42;;;;;;;;;;;4.20;99.90;;;;;;5068091;28;19966;-78
2022/11/28 06:45:08;;;;;;;;;;;4.30;99.90;;;;;;5068664;28;19914;-77
2022/11/28 06:47:34;;;;;;;;;;;4.20;99.90;;;;;;5072613;28;19908;-77
2022/11/28 06:49:59;;;;;;;;;;;4.40;99.90;;;;;;5072812;28;19944;-78
2022/11/28 06:52:25;;;;;;;;;;;4.30;99.90;;;;;;5072521;28;19963;-78
2022/11/28 06:54:50;;;;;;;;;;;4.30;99.90;;;;;;5073363;28;20651;-77
2022/11/28 06:57:16;;;;;;;;;;;4.30;99.90;;;;;;5071888;28;19927;-78
2022/11/28 06:59:41;;;;;;;;;;;4.40;99.90;;;;;;5072641;28;19908;-77
2022/11/28 07:02:09;;;;;;;;;;;4.50;99.90;;;;;;5072169;28;20261;-77
2022/11/28 07:04:34;;;;;;;;;;;4.40;99.90;;;;;;5071329;28;19915;-79
2022/11/28 07:07:00;;;;;;;;;;;4.40;99.90;;;;;;5071665;28;19916;-79
2022/11/28 07:09:26;;;;;;;;;;;4.50;99.90;;;;;;5073259;28;20002;-79
2022/11/28 07:11:51;;;;;;;;;;;4.50;99.90;;;;;;5072203;28;19909;-77
2022/11/28 07:14:16;;;;;;;;;;;4.50;99.90;;;;;;5070976;28;19918;-77
2022/11/28 07:16:42;;;;;;;;;;;4.70;99.90;;;;;;5070842;28;19915;-78
2022/11/28 07:19:09;;;;;;;;;;;4.60;99.90;;;;;;5072674;28;20545;-78
2022/11/28 07:21:35;;;;;;;;;;;4.60;99.90;;;;;;5071214;28;19995;-78
2022/11/28 07:24:00;;;;;;;;;;;4.70;99.90;;;;;;5072168;28;20031;-78
2022/11/28 07:26:26;;;;;;;;;;;4.70;99.90;;;;;;5072549;28;19916;-78
2022/11/28 07:28:51;;;;;;;;;;;4.80;99.90;;;;;;5071275;28;19915;-77
2022/11/28 07:31:18;;;;;;;;;;;4.70;99.90;;;;;;5071766;28;19916;-78
2022/11/28 07:33:45;;;;;;;;;;;4.90;99.90;;;;;;5073251;28;20008;-78
2022/11/28 07:36:21;;;;;;;;;;;4.80;99.90;;;;;;5072454;28;20364;-77
2022/11/28 07:38:51;;;;;;;;;;;4.90;99.90;;;;;;5072847;28;19993;-77
2022/11/28 07:41:17;;;;;;;;;;;4.90;99.90;;;;;;5071544;28;20614;-78
2022/11/28 07:43:44;;;;;;;;;;;4.90;99.90;;;;;;5071220;28;19920;-78
2022/11/28 07:46:11;;;;;;;;;;;4.90;99.90;;;;;;5071338;28;19912;-78
2022/11/28 07:48:36;;;;;;;;;;;5.00;99.90;;;;;;5072377;28;19904;-78
2022/11/28 07:51:06;;;;;;;;;;;5.00;99.90;;;;;;5069832;28;19931;-77
2022/11/28 07:53:32;;;;;;;;;;;5.10;99.90;;;;;;5071220;28;19908;-78
2022/11/28 07:56:04;;;;;;;;;;;5.10;99.90;;;;;;5071444;28;19908;-78
2022/11/28 07:58:30;;;;;;;;;;;5.20;99.90;;;;;;5069995;28;19908;-79
2022/11/28 08:00:56;;;;;;;;;;;5.20;99.90;;;;;;5072401;28;19915;-78
2022/11/28 08:03:22;;;;;;;;;;;5.20;99.90;;;;;;5072349;28;20641;-78
2022/11/28 08:05:48;;;;;;;;;;;5.30;99.90;;;;;;5073596;28;19923;-78
2022/11/28 08:08:15;;;;;;;;;;;5.40;99.90;;;;;;5071242;28;19930;-78
2022/11/28 08:10:40;;;;;;;;;;;5.50;99.90;;;;;;5072458;28;19908;-78
2022/11/28 08:13:06;;;;;;;;;;;5.40;99.90;;;;;;5071740;28;20426;-79
2022/11/28 08:15:31;;;;;;;;;;;5.40;99.90;;;;;;5073822;28;19954;-78
2022/11/28 08:17:57;;;;;;;;;;;5.40;99.90;;;;;;5075609;28;20003;-78
2022/11/28 08:20:22;;;;;;;;;;;5.40;99.90;;;;;;5074570;28;19938;-78
2022/11/28 08:22:48;;;;;;;;;;;5.50;99.90;;;;;;5070753;28;19908;-77
2022/11/28 08:25:13;;;;;;;;;;;5.50;99.90;;;;;;5069815;28;19908;-77
2022/11/28 08:27:39;;;;;;;;;;;5.60;99.90;;;;;;5070295;28;20007;-77
2022/11/28 08:30:05;;;;;;;;;;;5.60;99.90;;;;;;5067578;28;20466;-78
2022/11/28 08:32:30;;;;;;;;;;;5.60;99.90;;;;;;5068273;28;19999;-77
2022/11/28 08:34:56;;;;;;;;;;;5.70;99.90;;;;;;5068026;28;19908;-78
2022/11/28 08:37:21;;;;;;;;;;;5.60;99.90;;;;;;5068629;28;19908;-78
2022/11/28 08:39:47;;;;;;;;;;;5.70;99.90;;;;;;5069064;28;19912;-77
2022/11/28 08:42:12;;;;;;;;;;;5.70;99.90;;;;;;5069611;28;19908;-78
2022/11/28 08:44:38;;;;;;;;;;;5.70;99.90;;;;;;5068983;28;20159;-78
2022/11/28 08:47:03;;;;;;;;;;;5.70;99.90;;;;;;5067234;28;19968;-78
2022/11/28 08:49:29;;;;;;;;;;;5.80;99.90;;;;;;5067906;28;20366;-78
2022/11/28 08:51:54;;;;;;;;;;;5.90;99.90;;;;;;5068351;28;19911;-78
2022/11/28 08:54:20;;;;;;;;;;;6.00;99.90;;;;;;5067630;28;19908;-78
2022/11/28 08:56:46;;;;;;;;;;;6.10;99.90;;;;;;5067923;28;19905;-78
2022/11/28 08:59:11;;;;;;;;;;;6.00;99.90;;;;;;5067845;28;19915;-78
2022/11/28 09:01:38;;;;;;;;;;;6.10;99.90;;;;;;5067688;28;19912;-78
2022/11/28 09:04:04;;;;;;;;;;;5.80;99.90;;;;;;5067887;28;19911;-78
2022/11/28 09:06:29;;;;;;;;;;;5.70;99.90;;;;;;5067716;28;19917;-77
2022/11/28 09:08:56;;;;;;;;;;;5.60;99.90;;;;;;5065769;28;19904;-78
2022/11/28 09:11:22;;;;;;;;;;;5.80;99.90;;;;;;5066798;28;19956;-78
2022/11/28 09:13:48;;;;;;;;;;;5.80;99.90;;;;;;5067379;28;19985;-78
2022/11/28 09:16:14;;;;;;;;;;;5.80;99.90;;;;;;5069079;28;19912;-78
2022/11/28 09:18:39;;;;;;;;;;;5.80;99.90;;;;;;5066958;28;19908;-77
2022/11/28 09:21:10;;;;;;;;;;;6.00;99.90;;;;;;5066267;28;19947;-77
2022/11/28 09:23:36;;;;;;;;;;;5.90;99.90;;;;;;5067085;28;19968;-77
2022/11/28 09:26:06;;;;;;;;;;;5.80;99.90;;;;;;5068504;28;20364;-78
2022/11/28 09:28:32;;;;;;;;;;;5.70;99.90;;;;;;5067904;28;20377;-78
2022/11/28 09:31:01;;;;;;;;;;;5.70;99.90;;;;;;5067397;28;19920;-78
2022/11/28 09:33:27;;;;;;;;;;;5.70;99.90;;;;;;5066753;28;19991;-78
2022/11/28 09:35:54;;;;;;;;;;;5.70;99.90;;;;;;5067482;28;20359;-77
2022/11/28 09:38:20;;;;;;;;;;;5.80;99.90;;;;;;5073956;28;19908;-78
2022/11/28 09:40:46;;;;;;;;;;;5.80;99.90;;;;;;5070933;28;19909;-77
2022/11/28 09:43:17;;;;;;;;;;;5.80;99.90;;;;;;5073635;28;19924;-77
2022/11/28 09:45:44;;;;;;;;;;;5.70;99.90;;;;;;5068495;28;19978;-77
2022/11/28 09:48:16;;;;;;;;;;;5.80;99.90;;;;;;5070889;28;19908;-78
2022/11/28 09:50:42;;;;;;;;;;;5.70;99.90;;;;;;5073076;28;20319;-78
2022/11/28 09:53:08;;;;;;;;;;;5.80;99.90;;;;;;5071935;28;19904;-77
2022/11/28 09:55:36;;;;;;;;;;;5.80;99.90;;;;;;5070560;28;19953;-77
2022/11/28 09:58:11;;;;;;;;;;;5.90;99.90;;;;;;5071177;28;19908;-77
2022/11/28 10:00:40;;;;;;;;;;;6.00;99.90;;;;;;5071786;28;19908;-78
2022/11/28 10:03:24;;;;;;;;;;;6.00;99.90;;;;;;5069494;28;19908;-77
2022/11/28 10:06:19;;;;;;;;;;;6.00;99.90;;;;;;5073864;28;19912;-78
2022/11/28 10:08:44;;;;;;;;;;;5.90;99.90;;;;;;5067955;28;19915;-77
2022/11/28 10:11:19;;;;;;;;;;;6.00;99.90;;;;;;5072016;28;19908;-77
2022/11/28 10:14:03;;;;;;;;;;;6.10;99.90;;;;;;5072316;28;19912;-76
2022/11/28 10:16:52;;;;;;;;;;;5.90;99.90;;;;;;5071111;28;19904;-78
2022/11/28 10:19:21;;;;;;;;;;;5.80;99.90;;;;;;5070953;28;20407;-77
2022/11/28 10:21:48;;;;;;;;;;;5.70;99.90;;;;;;5073874;28;20053;-78
2022/11/28 10:24:28;;;;;;;;;;;5.60;99.90;;;;;;5075505;28;20296;-79
2022/11/28 10:26:57;;;;;;;;;;;5.50;99.90;;;;;;5073153;28;19913;-78
2022/11/28 10:29:25;;;;;;;;;;;5.40;99.90;;;;;;5075473;28;19916;-78
2022/11/28 10:31:55;;;;;;;;;;;5.40;99.90;;;;;;5074639;28;19904;-77
2022/11/28 10:34:40;;;;;;;;;;;5.50;99.90;;;;;;5075400;28;20050;-77
2022/11/28 10:37:06;;;;;;;;;;;5.30;99.90;;;;;;5076200;28;19908;-77
2022/11/28 10:39:34;;;;;;;;;;;5.30;99.90;;;;;;5076258;28;20432;-78
2022/11/28 10:42:13;;;;;;;;;;;5.30;99.90;;;;;;5077811;28;19910;-78
2022/11/28 10:45:18;;;;;;;;;;;5.30;99.90;;;;;;5077911;28;19923;-78
2022/11/28 10:47:52;;;;;;;;;;;5.50;99.90;;;;;;5054187;28;19912;-77
2022/11/28 10:50:20;;;;;;;;;;;5.70;99.90;;;;;;5069398;28;19920;-78
2022/11/28 10:52:50;;;;;;;;;;;5.90;99.90;;;;;;5074080;28;19905;-77
2022/11/28 10:55:24;;;;;;;;;;;6.00;99.90;;;;;;5072984;28;20288;-77
2022/11/28 10:58:02;;;;;;;;;;;6.00;99.90;;;;;;5072405;28;19908;-77
2022/11/28 11:00:27;;;;;;;;;;;5.90;99.90;;;;;;5070928;28;19965;-77
2022/11/28 11:02:54;;;;;;;;;;;5.90;99.90;;;;;;5076549;28;19999;-77
2022/11/28 11:05:23;;;;;;;;;;;5.90;99.90;;;;;;5073978;28;19909;-77
2022/11/28 11:07:56;;;;;;;;;;;6.00;99.90;;;;;;5071305;28;19958;-77
2022/11/28 11:10:41;;;;;;;;;;;6.20;99.90;;;;;;5071215;28;19904;-77
2022/11/28 11:13:11;;;;;;;;;;;6.30;99.90;;;;;;5074883;28;19904;-77
2022/11/28 11:15:37;;;;;;;;;;;6.50;99.90;;;;;;5075728;28;20316;-77
2022/11/28 11:18:04;;;;;;;;;;;6.50;99.90;;;;;;5077520;28;19960;-77
2022/11/28 11:20:32;;;;;;;;;;;6.70;99.90;;;;;;5076553;28;20471;-77
2022/11/28 11:22:59;;;;;;;;;;;6.60;99.90;;;;;;5076346;28;19918;-77
2022/11/28 11:25:26;;;;;;;;;;;6.40;99.90;;;;;;5075686;28;19904;-77
2022/11/28 11:27:54;;;;;;;;;;;6.30;99.90;;;;;;5076850;28;19971;-77
2022/11/28 11:30:24;;;;;;;;;;;6.20;99.90;;;;;;5073536;28;20348;-77
2022/11/28 11:32:50;;;;;;;;;;;6.20;99.90;;;;;;5072457;28;19904;-77
2022/11/28 11:35:20;;;;;;;;;;;6.20;99.90;;;;;;5076369;28;19909;-77
2022/11/28 11:37:46;;;;;;;;;;;6.30;99.90;;;;;;5076571;28;19916;-76
2022/11/28 11:40:24;;;;;;;;;;;6.50;99.90;;;;;;5075664;28;19904;-77
2022/11/28 11:42:51;;;;;;;;;;;6.50;99.90;;;;;;5073935;28;19935;-77
2022/11/28 11:45:28;;;;;;;;;;;6.40;99.90;;;;;;5073383;28;20003;-77
2022/11/28 11:47:53;;;;;;;;;;;6.40;99.90;;;;;;5072828;28;20342;-77
2022/11/28 11:50:21;;;;;;;;;;;6.60;99.90;;;;;;5070733;28;19911;-78
2022/11/28 11:53:05;;;;;;;;;;;6.70;99.90;;;;;;5071177;28;19908;-78
2022/11/28 11:55:33;;;;;;;;;;;6.70;99.90;;;;;;5072270;28;19904;-78
2022/11/28 11:58:00;;;;;;;;;;;6.80;99.90;;;;;;5071133;28;20003;-77
2022/11/28 12:00:33;;;;;;;;;;;7.00;99.90;;;;;;5070637;28;19908;-77
2022/11/28 12:03:01;;;;;;;;;;;7.10;99.90;;;;;;5070119;28;19908;-77
2022/11/28 12:05:30;;;;;;;;;;;7.20;99.90;;;;;;5070930;28;19947;-77
2022/11/28 12:07:59;;;;;;;;;;;7.30;99.90;;;;;;5072487;28;19909;-78
2022/11/28 12:10:26;;;;;;;;;;;7.40;99.90;;;;;;5072182;28;20281;-77
2022/11/28 12:12:51;;;;;;;;;;;7.40;99.90;;;;;;5070542;28;19909;-77
2022/11/28 12:15:24;;;;;;;;;;;7.20;99.90;;;;;;5068459;28;20319;-77
2022/11/28 12:18:02;;;;;;;;;;;7.10;99.90;;;;;;5072069;28;19904;-77
2022/11/28 12:20:30;;;;;;;;;;;7.10;99.90;;;;;;5071985;28;20471;-78
2022/11/28 12:23:15;;;;;;;;;;;7.20;99.90;;;;;;5070578;28;20399;-77
2022/11/28 12:25:40;;;;;;;;;;;7.20;99.90;;;;;;5069963;28;19935;-77
2022/11/28 12:28:12;;;;;;;;;;;7.10;99.90;;;;;;5070583;28;20357;-77
2022/11/28 12:30:52;;;;;;;;;;;7.00;99.90;;;;;;5071525;28;19997;-77
2022/11/28 12:33:21;;;;;;;;;;;6.90;99.90;;;;;;5068428;28;19912;-77
2022/11/28 12:35:54;;;;;;;;;;;6.80;99.90;;;;;;5069530;28;19908;-78
2022/11/28 12:38:35;;;;;;;;;;;6.70;99.90;;;;;;5071303;28;19916;-78
2022/11/28 12:41:06;;;;;;;;;;;6.80;99.90;;;;;;5070692;28;20434;-77
2022/11/28 12:43:31;;;;;;;;;;;6.70;99.90;;;;;;5069896;28;20016;-77
2022/11/28 12:45:56;;;;;;;;;;;6.70;99.90;;;;;;5069586;28;19967;-78
2022/11/28 12:48:25;;;;;;;;;;;6.80;99.90;;;;;;5069859;28;20369;-78
2022/11/28 12:50:57;;;;;;;;;;;6.70;99.90;;;;;;5067200;28;19999;-78
2022/11/28 12:53:42;;;;;;;;;;;6.70;99.90;;;;;;5071649;28;20096;-77
2022/11/28 12:56:17;;;;;;;;;;;6.60;99.90;;;;;;5070568;28;19919;-78
2022/11/28 12:58:45;;;;;;;;;;;6.60;99.90;;;;;;5072477;28;19908;-78
2022/11/28 13:01:29;;;;;;;;;;;6.60;99.90;;;;;;5070798;28;19915;-78
2022/11/28 13:04:04;;;;;;;;;;;6.60;99.90;;;;;;5073171;28;20007;-77
2022/11/28 13:06:46;;;;;;;;;;;6.50;99.90;;;;;;5071101;28;20022;-76
2022/11/28 13:09:17;;;;;;;;;;;6.50;99.90;;;;;;5072090;28;19914;-77
2022/11/28 13:12:03;;;;;;;;;;;6.60;99.90;;;;;;5071007;28;20702;-77
2022/11/28 13:14:29;;;;;;;;;;;6.70;99.90;;;;;;5068216;28;19908;-78
2022/11/28 13:16:57;;;;;;;;;;;6.50;99.90;;;;;;5068287;28;20418;-78
2022/11/28 13:19:26;;;;;;;;;;;6.60;99.90;;;;;;5068878;28;20000;-77
2022/11/28 13:21:58;;;;;;;;;;;6.60;99.90;;;;;;5068543;28;19904;-77
2022/11/28 13:24:24;;;;;;;;;;;6.50;99.90;;;;;;5068425;28;19929;-78
2022/11/28 13:26:57;;;;;;;;;;;6.50;99.90;;;;;;5070058;28;19916;-78
2022/11/28 13:29:47;;;;;;;;;;;6.40;99.90;;;;;;5067746;28;19908;-77
2022/11/28 13:32:23;;;;;;;;;;;6.30;99.90;;;;;;5068784;28;20494;-77
2022/11/28 13:34:49;;;;;;;;;;;6.30;99.90;;;;;;5068580;28;19962;-78
2022/11/28 13:37:21;;;;;;;;;;;6.20;99.90;;;;;;5068400;28;19955;-78
2022/11/28 13:39:50;;;;;;;;;;;6.10;99.90;;;;;;5069809;28;19939;-78
2022/11/28 13:42:31;;;;;;;;;;;6.10;99.90;;;;;;5068238;28;19954;-78
2022/11/28 13:45:06;;;;;;;;;;;6.00;99.90;;;;;;5068704;28;20407;-77
2022/11/28 13:47:35;;;;;;;;;;;6.00;99.90;;;;;;5069502;28;20351;-78
2022/11/28 13:50:20;;;;;;;;;;;6.10;99.90;;;;;;5065283;28;19909;-77
2022/11/28 13:52:56;;;;;;;;;;;5.90;99.90;;;;;;5068294;28;20369;-77
2022/11/28 13:55:40;;;;;;;;;;;5.80;99.90;;;;;;5067684;28;19908;-78
2022/11/28 13:58:14;;;;;;;;;;;5.80;99.90;;;;;;5068190;28;19908;-77
2022/11/28 14:00:39;;;;;;;;;;;5.80;99.90;;;;;;5065113;28;20326;-77
2022/11/28 14:03:16;;;;;;;;;;;5.80;99.90;;;;;;5069239;28;20304;-77
2022/11/28 14:05:42;;;;;;;;;;;5.70;99.90;;;;;;5068633;28;19916;-77
2022/11/28 14:08:22;;;;;;;;;;;5.70;99.90;;;;;;5070052;28;19974;-77
2022/11/28 14:10:50;;;;;;;;;;;5.70;99.90;;;;;;5067565;28;20325;-78
2022/11/28 14:13:21;;;;;;;;;;;5.60;99.90;;;;;;5067880;28;19959;-77
2022/11/28 14:15:53;;;;;;;;;;;5.50;99.90;;;;;;5067809;28;19904;-76
2022/11/28 14:18:37;;;;;;;;;;;5.40;99.90;;;;;;5068025;28;20367;-78
2022/11/28 14:21:10;;;;;;;;;;;5.30;99.90;;;;;;5067647;28;19909;-77
2022/11/28 14:23:57;;;;;;;;;;;5.20;99.90;;;;;;5067105;28;19909;-77
2022/11/28 14:26:31;;;;;;;;;;;5.20;99.90;;;;;;5069243;28;20101;-77
2022/11/28 14:28:57;;;;;;;;;;;5.10;99.90;;;;;;5069163;28;19909;-78
2022/11/28 14:31:30;;;;;;;;;;;5.00;99.90;;;;;;5068300;28;20276;-78
2022/11/28 14:34:09;;;;;;;;;;;4.90;99.90;;;;;;5069132;28;20328;-76
2022/11/28 14:36:38;;;;;;;;;;;4.80;99.90;;;;;;5070413;28;19904;-77
2022/11/28 14:39:29;;;;;;;;;;;4.80;99.90;;;;;;5070429;28;19963;-77
2022/11/28 14:42:15;;;;;;;;;;;4.70;99.90;;;;;;5070644;28;19912;-77